createdAt,value
2023-02-04T00:00:30.445Z,1.50
2023-02-04T00:02:58.571Z,1.38
2023-02-04T00:05:26.464Z,1.23
2023-02-04T00:07:54.296Z,1.13
2023-02-04T00:10:22.301Z,1.10
2023-02-04T00:12:50.114Z,1.20
2023-02-04T00:15:17.909Z,1.15
2023-02-04T00:17:47.121Z,1.30
2023-02-04T00:20:14.957Z,1.15
2023-02-04T00:22:42.770Z,1.13
2023-02-04T00:25:10.571Z,1.15
2023-02-04T00:27:38.677Z,1.20
2023-02-04T00:30:07.712Z,1.27
2023-02-04T00:32:35.542Z,1.50
2023-02-04T00:35:04.865Z,1.05
2023-02-04T00:37:33.564Z,1.20
2023-02-04T00:40:01.426Z,1.20
2023-02-04T00:42:29.496Z,1.30
2023-02-04T00:44:57.289Z,1.35
2023-02-04T00:47:25.075Z,1.20
2023-02-04T00:49:52.841Z,1.30
2023-02-04T00:52:22.010Z,1.30
2023-02-04T00:54:49.823Z,1.20
2023-02-04T00:57:17.624Z,1.27
2023-02-04T00:59:45.559Z,1.40
2023-02-04T01:02:13.374Z,1.15
2023-02-04T01:04:41.189Z,1.30
2023-02-04T01:07:09.049Z,1.35
2023-02-04T01:09:38.218Z,1.15
2023-02-04T01:12:06.236Z,1.42
2023-02-04T01:14:34.032Z,1.52
2023-02-04T01:17:01.923Z,1.48
2023-02-04T01:19:29.702Z,1.38
2023-02-04T01:21:57.525Z,1.30
2023-02-04T01:24:25.434Z,1.10
2023-02-04T01:26:54.587Z,1.20
2023-02-04T01:29:22.417Z,1.17
2023-02-04T01:31:50.285Z,1.60
2023-02-04T01:34:18.108Z,1.30
2023-02-04T01:36:45.931Z,1.58
2023-02-04T01:39:13.769Z,1.50
2023-02-04T01:41:41.713Z,1.48
2023-02-04T01:44:11.232Z,1.40
2023-02-04T01:46:39.068Z,1.63
2023-02-04T01:49:08.035Z,1.48
2023-02-04T01:51:37.120Z,1.60
2023-02-04T01:54:05.480Z,1.50
2023-02-04T01:56:33.479Z,1.60
2023-02-04T01:59:01.404Z,1.75
2023-02-04T02:01:38.908Z,2.03
2023-02-04T02:04:06.816Z,1.73
2023-02-04T02:06:38.823Z,1.73
2023-02-04T02:09:06.866Z,2.10
2023-02-04T02:11:35.020Z,1.50
2023-02-04T02:14:02.935Z,1.77
2023-02-04T02:16:31.059Z,1.90
2023-02-04T02:19:00.374Z,2.17
2023-02-04T02:21:34.815Z,2.05
2023-02-04T02:24:27.008Z,2.65
2023-02-04T02:26:55.992Z,2.28
2023-02-04T02:29:24.729Z,2.50
2023-02-04T02:31:52.964Z,3.17
2023-02-04T02:34:20.959Z,2.28
2023-02-04T02:36:48.791Z,2.72
2023-02-04T02:39:18.312Z,2.38
2023-02-04T02:41:46.300Z,2.35
2023-02-04T02:44:19.296Z,2.10
2023-02-04T02:46:47.390Z,2.40
2023-02-04T02:49:18.329Z,2.63
2023-02-04T02:51:46.882Z,2.17
2023-02-04T02:54:24.118Z,2.70
2023-02-04T02:56:52.561Z,2.53
2023-02-04T02:59:21.020Z,2.25
2023-02-04T03:01:52.803Z,2.90
2023-02-04T03:04:21.519Z,2.38
2023-02-04T03:06:50.306Z,2.70
2023-02-04T03:09:18.529Z,2.75
2023-02-04T03:11:47.837Z,2.80
2023-02-04T03:14:16.158Z,2.45
2023-02-04T03:16:44.404Z,2.47
2023-02-04T03:19:13.425Z,2.13
2023-02-04T03:21:42.321Z,2.35
2023-02-04T03:24:10.332Z,1.90
2023-02-04T03:26:38.186Z,2.15
2023-02-04T03:29:10.693Z,1.73
2023-02-04T03:31:39.092Z,1.77
2023-02-04T03:34:07.084Z,1.88
2023-02-04T03:36:34.887Z,1.42
2023-02-04T03:39:02.931Z,1.70
2023-02-04T03:41:31.156Z,1.80
2023-02-04T03:43:58.971Z,1.60
2023-02-04T03:46:28.714Z,1.70
2023-02-04T03:48:56.711Z,1.77
2023-02-04T03:51:24.488Z,1.88
2023-02-04T03:53:52.333Z,1.90
2023-02-04T03:56:20.140Z,2.55
2023-02-04T03:58:48.086Z,1.50
2023-02-04T04:01:15.951Z,2.17
2023-02-04T04:03:45.132Z,1.80
2023-02-04T04:06:12.979Z,1.50
2023-02-04T04:08:40.786Z,1.90
2023-02-04T04:11:08.649Z,1.70
2023-02-04T04:13:36.464Z,1.65
2023-02-04T04:16:04.974Z,1.88
2023-02-04T04:18:33.370Z,1.55
2023-02-04T04:21:02.662Z,1.80
2023-02-04T04:23:30.508Z,2.00
2023-02-04T04:25:58.320Z,1.77
2023-02-04T04:28:26.121Z,2.53
2023-02-04T04:30:54.160Z,2.22
2023-02-04T04:33:22.109Z,2.65
2023-02-04T04:35:49.918Z,2.80
2023-02-04T04:38:19.070Z,2.15
2023-02-04T04:40:46.911Z,2.53
2023-02-04T04:43:14.707Z,2.42
2023-02-04T04:45:42.527Z,2.13
2023-02-04T04:48:10.317Z,1.92
2023-02-04T04:50:38.160Z,2.50
2023-02-04T04:53:10.939Z,2.35
2023-02-04T04:55:40.447Z,1.92
2023-02-04T04:58:09.574Z,2.35
2023-02-04T05:00:37.431Z,2.00
2023-02-04T05:03:05.251Z,2.50
2023-02-04T05:05:34.034Z,2.42
2023-02-04T05:08:01.856Z,2.47
2023-02-04T05:10:29.961Z,2.30
2023-02-04T05:12:59.423Z,2.38
2023-02-04T05:15:27.217Z,2.72
2023-02-04T05:17:55.187Z,2.20
2023-02-04T05:20:22.995Z,2.60
2023-02-04T05:22:50.855Z,3.13
2023-02-04T05:25:18.860Z,2.17
2023-02-04T05:27:46.885Z,3.05
2023-02-04T05:30:16.878Z,2.05
2023-02-04T05:32:44.730Z,2.45
2023-02-04T05:35:12.715Z,1.92
2023-02-04T05:37:40.524Z,1.98
2023-02-04T05:40:09.430Z,2.05
2023-02-04T05:42:37.244Z,2.72
2023-02-04T05:45:05.323Z,2.33
2023-02-04T05:47:34.553Z,1.98
2023-02-04T05:50:02.410Z,2.03
2023-02-04T05:52:30.517Z,2.60
2023-02-04T05:54:58.340Z,2.13
2023-02-04T05:57:26.251Z,2.80
2023-02-04T05:59:54.087Z,2.85
2023-02-04T06:02:21.874Z,1.88
2023-02-04T06:04:51.435Z,2.13
2023-02-04T06:07:19.247Z,2.55
2023-02-04T06:09:47.044Z,2.40
2023-02-04T06:12:14.965Z,2.10
2023-02-04T06:14:42.767Z,2.15
2023-02-04T06:17:10.555Z,2.40
2023-02-04T06:19:38.346Z,2.20
2023-02-04T06:22:07.675Z,2.60
2023-02-04T06:24:35.462Z,2.35
2023-02-04T06:27:03.255Z,2.35
2023-02-04T06:29:31.047Z,2.25
2023-02-04T06:31:59.335Z,2.30
2023-02-04T06:34:27.444Z,2.47
2023-02-04T06:36:55.611Z,2.20
2023-02-04T06:39:25.002Z,1.80
2023-02-04T06:41:53.006Z,2.15
2023-02-04T06:44:20.962Z,2.28
2023-02-04T06:46:48.754Z,2.28
2023-02-04T06:49:16.807Z,2.22
2023-02-04T06:51:44.908Z,1.75
2023-02-04T06:54:12.897Z,2.20
2023-02-04T06:56:43.709Z,2.50
2023-02-04T06:59:11.753Z,1.98
2023-02-04T07:01:39.846Z,2.20
2023-02-04T07:04:07.925Z,2.60
2023-02-04T07:06:35.917Z,2.20
2023-02-04T07:09:04.007Z,2.10
2023-02-04T07:11:31.986Z,2.17
2023-02-04T07:14:01.448Z,3.25
2023-02-04T07:16:29.631Z,3.05
2023-02-04T07:18:57.573Z,3.60
2023-02-04T07:21:25.587Z,2.55
2023-02-04T07:23:53.382Z,3.30
2023-02-04T07:26:21.359Z,3.40
2023-02-04T07:28:49.706Z,2.88
2023-02-04T07:31:18.965Z,1.75
2023-02-04T07:33:46.842Z,2.35
2023-02-04T07:36:15.403Z,1.85
2023-02-04T07:38:43.211Z,2.40
2023-02-04T07:41:10.999Z,2.40
2023-02-04T07:43:39.010Z,2.88
2023-02-04T07:46:07.432Z,2.33
2023-02-04T07:48:36.568Z,2.33
2023-02-04T07:51:04.476Z,2.40
2023-02-04T07:53:32.273Z,2.10
2023-02-04T07:56:00.172Z,2.28
2023-02-04T07:58:27.994Z,2.83
2023-02-04T08:00:55.815Z,1.88
2023-02-04T08:03:23.699Z,2.42
2023-02-04T08:05:52.851Z,1.98
2023-02-04T08:08:20.672Z,2.20
2023-02-04T08:10:48.942Z,2.00
2023-02-04T08:13:16.762Z,2.00
2023-02-04T08:15:44.571Z,2.13
2023-02-04T08:18:12.424Z,2.03
2023-02-04T08:20:40.328Z,2.42
2023-02-04T08:23:09.730Z,3.63
2023-02-04T08:25:37.545Z,1.70
2023-02-04T08:28:05.734Z,2.75
2023-02-04T08:30:33.902Z,1.73
2023-02-04T08:33:01.895Z,1.88
2023-02-04T08:35:29.754Z,2.75
2023-02-04T08:37:57.566Z,2.20
2023-02-04T08:40:26.752Z,1.90
2023-02-04T08:42:54.703Z,2.40
2023-02-04T08:45:22.524Z,2.20
2023-02-04T08:47:50.350Z,1.40
2023-02-04T08:50:18.571Z,2.10
2023-02-04T08:52:46.397Z,1.83
2023-02-04T08:55:14.247Z,2.33
2023-02-04T08:57:43.419Z,3.40
2023-02-04T09:00:13.232Z,2.05
2023-02-04T09:02:41.051Z,2.22
2023-02-04T09:05:09.332Z,2.35
2023-02-04T09:07:37.153Z,2.10
2023-02-04T09:10:05.154Z,2.88
2023-02-04T09:12:35.451Z,2.25
2023-02-04T09:15:05.427Z,2.30
2023-02-04T09:17:33.813Z,2.03
2023-02-04T09:20:01.751Z,2.28
2023-02-04T09:22:29.857Z,2.10
2023-02-04T09:24:57.632Z,1.92
2023-02-04T09:27:25.492Z,2.05
2023-02-04T09:29:53.292Z,2.00
2023-02-04T09:32:23.743Z,1.92
2023-02-04T09:34:56.590Z,1.70
2023-02-04T09:37:26.941Z,1.98
2023-02-04T09:39:55.216Z,1.80
2023-02-04T09:42:30.159Z,1.75
2023-02-04T09:45:00.702Z,0.90
2023-02-04T09:47:30.731Z,0.80
2023-02-04T09:50:02.434Z,0.73
2023-02-04T09:52:30.508Z,0.80
2023-02-04T09:54:58.371Z,0.90
2023-02-04T09:57:26.162Z,0.60
2023-02-04T09:59:55.006Z,0.68
2023-02-04T10:02:25.085Z,0.60
2023-02-04T10:04:58.599Z,0.60
2023-02-04T10:07:27.723Z,0.50
2023-02-04T10:09:55.985Z,0.70
2023-02-04T10:12:23.859Z,0.60
2023-02-04T10:14:52.024Z,0.70
2023-02-04T10:17:23.359Z,0.73
2023-02-04T10:19:51.590Z,0.60
2023-02-04T10:22:23.578Z,0.90
2023-02-04T10:24:51.502Z,0.70
2023-02-04T10:27:19.280Z,0.57
2023-02-04T10:29:56.839Z,0.52
2023-02-04T10:32:30.000Z,0.82
2023-02-04T10:34:59.898Z,0.77
2023-02-04T10:37:30.521Z,0.50
2023-02-04T10:39:58.528Z,0.50
2023-02-04T10:42:27.863Z,0.82
2023-02-04T10:44:56.081Z,0.60
2023-02-04T10:47:25.743Z,0.82
2023-02-04T10:49:55.664Z,0.98
2023-02-04T10:52:27.288Z,0.93
2023-02-04T10:54:55.581Z,0.88
2023-02-04T10:57:26.491Z,1.10
2023-02-04T10:59:57.612Z,0.80
2023-02-04T11:02:41.547Z,0.80
2023-02-04T11:05:15.079Z,0.90
2023-02-04T11:07:43.033Z,0.98
2023-02-04T11:10:20.149Z,0.80
2023-02-04T11:13:00.666Z,0.80
2023-02-04T11:15:41.432Z,0.80
2023-02-04T11:18:11.285Z,0.85
2023-02-04T11:20:41.153Z,1.10
2023-02-04T11:23:32.361Z,1.30
2023-02-04T11:26:10.003Z,0.90
2023-02-04T11:28:49.413Z,1.25
2023-02-04T11:31:30.554Z,1.15
2023-02-04T11:34:12.207Z,1.30
2023-02-04T11:37:02.603Z,1.53
2023-02-04T11:39:35.235Z,1.02
2023-02-04T11:42:05.272Z,1.30
2023-02-04T11:44:34.515Z,1.00
2023-02-04T11:47:08.075Z,1.10
2023-02-04T11:49:37.781Z,1.20
2023-02-04T11:52:08.759Z,1.08
2023-02-04T11:54:37.137Z,1.15
2023-02-04T11:57:06.515Z,1.13
2023-02-04T11:59:34.432Z,1.33
2023-02-04T12:02:06.762Z,1.33
2023-02-04T12:07:04.747Z,1.30
2023-02-04T12:09:33.060Z,1.40
2023-02-04T12:12:03.303Z,1.10
2023-02-04T12:14:34.294Z,1.00
2023-02-04T12:17:02.641Z,1.05
2023-02-04T12:19:30.509Z,0.88
2023-02-04T12:21:58.372Z,0.80
2023-02-04T12:24:26.189Z,0.82
2023-02-04T12:26:54.048Z,1.00
2023-02-04T12:29:21.876Z,1.00
2023-02-04T12:31:51.131Z,0.73
2023-02-04T12:34:19.133Z,0.60
2023-02-04T12:36:46.980Z,0.60
2023-02-04T12:39:14.914Z,0.73
2023-02-04T12:41:42.791Z,0.70
2023-02-04T12:44:10.626Z,0.60
2023-02-04T12:46:38.529Z,0.60
2023-02-04T12:49:09.596Z,0.70
2023-02-04T12:51:37.583Z,0.45
2023-02-04T12:54:05.615Z,0.70
2023-02-04T12:56:33.451Z,0.77
2023-02-04T12:59:01.296Z,0.60
2023-02-04T13:01:29.202Z,0.65
2023-02-04T13:03:58.066Z,0.70
2023-02-04T13:06:27.386Z,0.60
2023-02-04T13:08:55.201Z,0.77
2023-02-04T13:11:23.067Z,1.00
2023-02-04T13:13:50.921Z,1.08
2023-02-04T13:16:19.386Z,1.20
2023-02-04T13:18:47.317Z,1.00
2023-02-04T13:21:15.165Z,0.93
2023-02-04T13:23:44.386Z,1.00
2023-02-04T13:26:12.330Z,0.80
2023-02-04T13:28:40.149Z,0.68
2023-02-04T13:31:08.119Z,0.70
2023-02-04T13:33:36.156Z,0.73
2023-02-04T13:36:04.318Z,0.70
2023-02-04T13:38:32.237Z,0.80
2023-02-04T13:41:01.472Z,0.52
2023-02-04T13:43:29.302Z,0.85
2023-02-04T13:45:57.911Z,0.80
2023-02-04T13:48:26.047Z,0.93
2023-02-04T13:50:53.859Z,0.90
2023-02-04T13:53:21.906Z,0.90
2023-02-04T13:55:49.782Z,0.60
2023-02-04T13:58:19.051Z,0.55
2023-02-04T14:00:47.018Z,0.57
2023-02-04T14:03:14.900Z,0.65
2023-02-04T14:05:42.724Z,0.65
2023-02-04T14:08:10.595Z,0.88
2023-02-04T14:10:38.901Z,0.63
2023-02-04T14:13:06.985Z,0.52
2023-02-04T14:15:37.634Z,0.70
2023-02-04T14:18:05.868Z,0.57
2023-02-04T14:20:33.934Z,0.70
2023-02-04T14:23:02.022Z,0.55
2023-02-04T14:25:29.870Z,0.70
2023-02-04T14:28:00.179Z,0.50
2023-02-04T14:30:29.726Z,0.55
2023-02-04T14:32:59.911Z,0.93
2023-02-04T14:35:28.228Z,0.70
2023-02-04T14:37:56.125Z,0.80
2023-02-04T14:40:45.806Z,0.60
2023-02-04T14:43:16.056Z,0.85
2023-02-04T14:45:44.031Z,0.77
2023-02-04T14:48:15.093Z,0.80
2023-02-04T14:50:54.627Z,1.10
2023-02-04T14:56:19.852Z,1.15
2023-02-04T14:58:50.062Z,0.93
2023-02-04T15:01:24.314Z,0.70
2023-02-04T15:04:00.824Z,0.80
2023-02-04T15:06:29.249Z,0.60
2023-02-04T15:09:36.463Z,1.00
2023-02-04T15:16:08.102Z,0.80
2023-02-04T15:21:25.598Z,0.80
2023-02-04T15:23:54.002Z,0.80
2023-02-04T15:26:22.458Z,1.05
2023-02-04T15:28:52.932Z,0.73
2023-02-04T15:31:25.541Z,1.10
2023-02-04T15:37:59.513Z,0.80
2023-02-04T15:40:37.519Z,0.80
2023-02-04T15:46:06.690Z,0.80
2023-02-04T15:48:47.196Z,0.90
2023-02-04T15:51:23.166Z,0.80
2023-02-04T15:57:02.633Z,0.80
2023-02-04T15:59:40.423Z,0.75
2023-02-04T16:02:08.301Z,0.80
2023-02-04T16:04:36.124Z,0.73
2023-02-04T16:07:08.007Z,0.80
2023-02-04T16:09:37.246Z,1.00
2023-02-04T16:12:05.536Z,0.90
2023-02-04T16:14:33.422Z,1.40
2023-02-04T16:17:01.749Z,1.40
2023-02-04T16:19:29.984Z,1.48
2023-02-04T16:21:57.853Z,1.23
2023-02-04T16:24:25.699Z,1.75
2023-02-04T16:26:54.863Z,1.33
2023-02-04T16:29:22.727Z,1.83
2023-02-04T16:31:50.579Z,1.30
2023-02-04T16:34:18.445Z,1.67
2023-02-04T16:36:46.496Z,1.40
2023-02-04T16:39:14.365Z,1.30
2023-02-04T16:41:42.352Z,1.48
2023-02-04T16:44:11.528Z,1.70
2023-02-04T16:46:39.384Z,1.20
2023-02-04T16:49:07.401Z,1.30
2023-02-04T16:51:35.250Z,1.35
2023-02-04T16:54:03.072Z,1.20
2023-02-04T16:56:35.102Z,0.98
2023-02-04T16:59:03.384Z,1.23
2023-02-04T17:01:32.825Z,1.17
2023-02-04T17:04:00.683Z,1.20
2023-02-04T17:06:29.594Z,1.17
2023-02-04T17:08:57.903Z,1.13
2023-02-04T17:11:29.913Z,1.10
2023-02-04T17:13:57.894Z,1.10
2023-02-04T17:16:25.981Z,1.20
2023-02-04T17:18:55.892Z,1.10
2023-02-04T17:21:24.738Z,0.95
2023-02-04T17:23:52.919Z,1.10
2023-02-04T17:26:22.364Z,1.00
2023-02-04T17:28:51.638Z,1.00
2023-02-04T17:31:19.524Z,1.20
2023-02-04T17:33:47.371Z,1.20
2023-02-04T17:36:16.551Z,1.05
2023-02-04T17:38:44.376Z,1.25
2023-02-04T17:41:12.232Z,1.55
2023-02-04T17:43:40.191Z,1.30
2023-02-04T17:46:08.122Z,1.38
2023-02-04T17:48:36.012Z,1.80
2023-02-04T17:51:03.857Z,1.88
2023-02-04T17:53:36.202Z,1.67
2023-02-04T17:56:07.731Z,4.15
2023-02-04T17:58:36.285Z,15.88
2023-02-04T18:01:10.821Z,10.65
2023-02-04T18:03:38.895Z,5.13
2023-02-04T18:06:22.466Z,2.40
2023-02-04T18:08:52.997Z,1.70
2023-02-04T18:11:22.803Z,1.80
2023-02-04T18:13:51.026Z,2.85
2023-02-04T18:16:26.597Z,2.60
2023-02-04T18:18:57.500Z,2.30
2023-02-04T18:21:26.885Z,3.00
2023-02-04T18:24:17.322Z,2.40
2023-02-04T18:26:47.566Z,2.00
2023-02-04T18:29:30.186Z,1.83
2023-02-04T18:32:00.450Z,1.80
2023-02-04T18:34:34.357Z,1.90
2023-02-04T18:37:21.129Z,2.22
2023-02-04T18:39:53.494Z,2.13
2023-02-04T18:44:52.477Z,2.90
2023-02-04T18:47:31.465Z,3.50
2023-02-04T18:50:01.510Z,3.40
2023-02-04T18:52:38.951Z,3.65
2023-02-04T18:55:22.879Z,3.88
2023-02-04T18:57:50.758Z,4.53
2023-02-04T19:00:36.408Z,4.72
2023-02-04T19:03:21.012Z,5.60
2023-02-04T19:05:49.943Z,6.13
2023-02-04T19:08:27.198Z,6.95
2023-02-04T19:10:57.504Z,6.20
2023-02-04T19:13:27.492Z,7.07
2023-02-04T19:16:01.813Z,7.35
2023-02-04T19:18:33.779Z,6.47
2023-02-04T19:21:25.735Z,6.38
2023-02-04T19:23:58.000Z,6.18
2023-02-04T19:29:01.325Z,6.18
2023-02-04T19:31:34.415Z,6.32
2023-02-04T19:34:18.448Z,6.60
2023-02-04T19:36:46.346Z,6.30
2023-02-04T19:39:29.329Z,6.82
2023-02-04T19:41:58.640Z,6.20
2023-02-04T19:44:38.407Z,6.40
2023-02-04T19:47:24.550Z,6.47
2023-02-04T19:49:56.184Z,5.70
2023-02-04T19:52:34.735Z,5.75
2023-02-04T19:55:25.415Z,5.95
2023-02-04T19:57:57.900Z,5.60
2023-02-04T20:00:37.116Z,6.05
2023-02-04T20:03:15.567Z,5.68
2023-02-04T20:05:43.978Z,5.32
2023-02-04T20:08:41.430Z,5.90
2023-02-04T20:11:36.293Z,6.20
2023-02-04T20:14:26.564Z,5.78
2023-02-04T20:16:57.498Z,6.60
2023-02-04T20:19:35.309Z,7.40
2023-02-04T20:22:49.962Z,7.07
2023-02-04T20:25:46.813Z,6.07
2023-02-04T20:28:21.309Z,6.18
2023-02-04T20:30:52.232Z,8.88
2023-02-04T20:33:33.064Z,7.45
2023-02-04T20:36:27.974Z,8.50
2023-02-04T20:39:38.990Z,7.72
2023-02-04T20:42:41.880Z,6.88
2023-02-04T20:45:18.513Z,8.07
2023-02-04T20:47:49.356Z,8.43
2023-02-04T20:50:38.256Z,7.57
2023-02-04T20:53:22.605Z,7.32
2023-02-04T20:55:52.303Z,7.85
2023-02-04T20:58:22.960Z,8.02
2023-02-04T21:00:53.877Z,7.70
2023-02-04T21:03:29.580Z,7.47
2023-02-04T21:05:59.712Z,6.97
2023-02-04T21:08:41.219Z,6.38
2023-02-04T21:11:09.401Z,6.07
2023-02-04T21:13:38.738Z,6.15
2023-02-04T21:16:08.558Z,4.88
2023-02-04T21:18:38.961Z,4.07
2023-02-04T21:21:08.850Z,3.92
2023-02-04T21:23:37.660Z,4.07
2023-02-04T21:26:06.242Z,3.35
2023-02-04T21:28:34.260Z,4.03
2023-02-04T21:31:02.951Z,3.60
2023-02-04T21:33:31.221Z,4.05
2023-02-04T21:36:00.440Z,4.63
2023-02-04T21:38:28.313Z,4.55
2023-02-04T21:40:56.174Z,4.63
2023-02-04T21:43:24.039Z,4.30
2023-02-04T21:45:51.910Z,4.07
2023-02-04T21:48:19.814Z,4.60
2023-02-04T21:50:47.640Z,4.90
2023-02-04T21:53:16.808Z,4.32
2023-02-04T21:55:44.674Z,4.32
2023-02-04T21:58:12.585Z,4.47
2023-02-04T22:00:40.464Z,4.60
2023-02-04T22:03:15.545Z,4.68
2023-02-04T22:05:43.751Z,4.72
2023-02-04T22:08:11.944Z,5.18
2023-02-04T22:10:41.127Z,4.80
2023-02-04T22:13:09.007Z,5.13
2023-02-04T22:15:36.847Z,5.18
2023-02-04T22:18:04.830Z,5.60
2023-02-04T22:20:32.744Z,5.43
2023-02-04T22:23:00.580Z,5.63
2023-02-04T22:25:28.466Z,5.10
2023-02-04T22:27:57.753Z,4.88
2023-02-04T22:30:25.654Z,5.28
2023-02-04T22:32:53.527Z,5.13
2023-02-04T22:35:21.444Z,5.57
2023-02-04T22:37:49.384Z,5.50
2023-02-04T22:40:17.268Z,5.20
2023-02-04T22:42:45.088Z,5.70
2023-02-04T22:45:14.322Z,5.90
2023-02-04T22:47:42.149Z,5.72
2023-02-04T22:50:11.007Z,5.20
2023-02-04T22:52:38.816Z,5.63
2023-02-04T22:55:07.433Z,5.72
2023-02-04T22:57:35.268Z,5.32
2023-02-04T23:00:03.181Z,5.57
2023-02-04T23:02:32.460Z,5.80
2023-02-04T23:05:00.492Z,4.93
2023-02-04T23:07:28.375Z,4.85
2023-02-04T23:09:56.312Z,5.10
2023-02-04T23:12:24.201Z,5.18
2023-02-04T23:14:52.123Z,5.05
2023-02-04T23:17:20.074Z,4.88
2023-02-04T23:19:49.368Z,5.40
2023-02-04T23:22:17.681Z,5.15
2023-02-04T23:24:45.601Z,5.38
2023-02-04T23:27:13.563Z,5.68
2023-02-04T23:29:41.562Z,5.93
2023-02-04T23:32:09.747Z,5.65
2023-02-04T23:34:37.669Z,5.30
2023-02-04T23:37:07.128Z,5.07
2023-02-04T23:39:35.012Z,5.32
2023-02-04T23:42:02.934Z,5.20
2023-02-04T23:44:30.819Z,4.95
2023-02-04T23:46:58.643Z,5.53
2023-02-04T23:49:26.556Z,5.20
2023-02-04T23:51:54.372Z,4.90
2023-02-04T23:54:24.689Z,4.57
2023-02-04T23:56:53.315Z,4.75
2023-02-04T23:59:21.163Z,5.43
